sensor_id;sensor_type;location;lat;lon;timestamp;pressure;altitude;pressure_sealevel;temperature
49154;BMP280;49455;52.252;9.124;2022-07-15T00:02:19;100000.34;;;13.57
49154;BMP280;49455;52.252;9.124;2022-07-15T00:07:19;99995.34;;;13.67
49154;BMP280;49455;52.252;9.124;2022-07-15T00:12:20;99990.28;;;13.73
49154;BMP280;49455;52.252;9.124;2022-07-15T00:17:20;99983.09;;;13.60
49154;BMP280;49455;52.252;9.124;2022-07-15T00:22:21;99983.63;;;13.43
49154;BMP280;49455;52.252;9.124;2022-07-15T00:27:21;99986.88;;;13.35
49154;BMP280;49455;52.252;9.124;2022-07-15T00:32:22;99987.66;;;13.31
49154;BMP280;49455;52.252;9.124;2022-07-15T00:37:23;99984.03;;;13.22
49154;BMP280;49455;52.252;9.124;2022-07-15T00:42:23;99979.47;;;13.13
49154;BMP280;49455;52.252;9.124;2022-07-15T00:47:24;99989.41;;;13.32
49154;BMP280;49455;52.252;9.124;2022-07-15T00:52:25;99985.31;;;13.41
49154;BMP280;49455;52.252;9.124;2022-07-15T00:57:26;99982.66;;;13.40
49154;BMP280;49455;52.252;9.124;2022-07-15T01:02:27;99984.38;;;13.38
49154;BMP280;49455;52.252;9.124;2022-07-15T01:07:28;99997.75;;;13.57
49154;BMP280;49455;52.252;9.124;2022-07-15T01:12:28;99989.09;;;13.58
49154;BMP280;49455;52.252;9.124;2022-07-15T01:17:29;99979.31;;;13.45
49154;BMP280;49455;52.252;9.124;2022-07-15T01:22:30;99985.00;;;13.28
49154;BMP280;49455;52.252;9.124;2022-07-15T01:27:30;99982.06;;;13.13
49154;BMP280;49455;52.252;9.124;2022-07-15T01:32:34;99993.13;;;13.05
49154;BMP280;49455;52.252;9.124;2022-07-15T01:37:34;99993.44;;;13.18
49154;BMP280;49455;52.252;9.124;2022-07-15T01:42:37;100004.97;;;12.93
49154;BMP280;49455;52.252;9.124;2022-07-15T01:47:45;100009.38;;;12.97
49154;BMP280;49455;52.252;9.124;2022-07-15T01:52:51;100006.97;;;13.04
49154;BMP280;49455;52.252;9.124;2022-07-15T01:57:52;100012.25;;;13.08
49154;BMP280;49455;52.252;9.124;2022-07-15T02:02:52;100017.44;;;13.08
49154;BMP280;49455;52.252;9.124;2022-07-15T02:07:55;100014.84;;;13.08
49154;BMP280;49455;52.252;9.124;2022-07-15T02:12:57;100031.47;;;12.80
49154;BMP280;49455;52.252;9.124;2022-07-15T02:18:05;100024.56;;;12.80
49154;BMP280;49455;52.252;9.124;2022-07-15T02:23:06;100022.59;;;12.72
49154;BMP280;49455;52.252;9.124;2022-07-15T02:28:07;100029.06;;;12.54
49154;BMP280;49455;52.252;9.124;2022-07-15T02:33:09;100036.00;;;12.55
49154;BMP280;49455;52.252;9.124;2022-07-15T02:38:10;100039.97;;;12.42
49154;BMP280;49455;52.252;9.124;2022-07-15T02:43:11;100040.56;;;12.31
49154;BMP280;49455;52.252;9.124;2022-07-15T02:48:12;100043.78;;;12.23
49154;BMP280;49455;52.252;9.124;2022-07-15T02:53:18;100041.34;;;12.27
49154;BMP280;49455;52.252;9.124;2022-07-15T02:58:18;100037.75;;;12.24
49154;BMP280;49455;52.252;9.124;2022-07-15T03:03:22;100043.78;;;12.23
49154;BMP280;49455;52.252;9.124;2022-07-15T03:08:24;100046.34;;;12.21
49154;BMP280;49455;52.252;9.124;2022-07-15T03:13:25;100052.56;;;12.28
49154;BMP280;49455;52.252;9.124;2022-07-15T03:18:26;100051.72;;;12.29
49154;BMP280;49455;52.252;9.124;2022-07-15T03:23:26;100052.59;;;12.29
49154;BMP280;49455;52.252;9.124;2022-07-15T03:28:28;100054.22;;;12.26
49154;BMP280;49455;52.252;9.124;2022-07-15T03:33:30;100056.09;;;12.30
49154;BMP280;49455;52.252;9.124;2022-07-15T03:38:31;100060.34;;;12.28
49154;BMP280;49455;52.252;9.124;2022-07-15T03:43:31;100063.09;;;12.34
49154;BMP280;49455;52.252;9.124;2022-07-15T03:48:33;100071.84;;;12.38
49154;BMP280;49455;52.252;9.124;2022-07-15T03:53:34;100063.28;;;12.41
49154;BMP280;49455;52.252;9.124;2022-07-15T03:58:35;100068.25;;;12.34
49154;BMP280;49455;52.252;9.124;2022-07-15T04:03:35;100071.06;;;12.41
49154;BMP280;49455;52.252;9.124;2022-07-15T04:08:36;100079.03;;;12.48
49154;BMP280;49455;52.252;9.124;2022-07-15T04:13:37;100074.31;;;12.66
49154;BMP280;49455;52.252;9.124;2022-07-15T04:18:38;100081.28;;;12.70
49154;BMP280;49455;52.252;9.124;2022-07-15T04:23:38;100074.69;;;12.79
49154;BMP280;49455;52.252;9.124;2022-07-15T04:28:42;100078.28;;;12.86
49154;BMP280;49455;52.252;9.124;2022-07-15T04:33:43;100078.41;;;12.90
49154;BMP280;49455;52.252;9.124;2022-07-15T04:38:43;100079.66;;;13.05
49154;BMP280;49455;52.252;9.124;2022-07-15T04:43:45;100078.94;;;13.12
49154;BMP280;49455;52.252;9.124;2022-07-15T04:48:48;100086.16;;;13.25
49154;BMP280;49455;52.252;9.124;2022-07-15T04:53:49;100089.00;;;13.35
49154;BMP280;49455;52.252;9.124;2022-07-15T04:58:49;100093.22;;;13.32
49154;BMP280;49455;52.252;9.124;2022-07-15T05:03:50;100082.31;;;13.46
49154;BMP280;49455;52.252;9.124;2022-07-15T05:08:53;100090.66;;;13.71
49154;BMP280;49455;52.252;9.124;2022-07-15T05:13:54;100093.84;;;13.98
49154;BMP280;49455;52.252;9.124;2022-07-15T05:18:54;100096.47;;;13.98
49154;BMP280;49455;52.252;9.124;2022-07-15T05:23:55;100108.00;;;14.13
49154;BMP280;49455;52.252;9.124;2022-07-15T05:28:55;100103.28;;;14.37
49154;BMP280;49455;52.252;9.124;2022-07-15T05:33:59;100109.50;;;14.45
49154;BMP280;49455;52.252;9.124;2022-07-15T05:39:01;100114.66;;;14.43
49154;BMP280;49455;52.252;9.124;2022-07-15T05:44:03;100115.81;;;14.57
49154;BMP280;49455;52.252;9.124;2022-07-15T05:49:09;100120.09;;;14.55
49154;BMP280;49455;52.252;9.124;2022-07-15T05:54:10;100128.94;;;14.63
49154;BMP280;49455;52.252;9.124;2022-07-15T05:59:10;100120.53;;;14.79
49154;BMP280;49455;52.252;9.124;2022-07-15T06:04:11;100115.63;;;14.96
49154;BMP280;49455;52.252;9.124;2022-07-15T06:09:14;100130.56;;;15.06
49154;BMP280;49455;52.252;9.124;2022-07-15T06:14:15;100127.91;;;15.03
49154;BMP280;49455;52.252;9.124;2022-07-15T06:19:15;100145.31;;;15.07
49154;BMP280;49455;52.252;9.124;2022-07-15T06:24:16;100137.59;;;15.10
49154;BMP280;49455;52.252;9.124;2022-07-15T06:29:16;100138.72;;;15.25
49154;BMP280;49455;52.252;9.124;2022-07-15T06:34:17;100135.53;;;15.45
49154;BMP280;49455;52.252;9.124;2022-07-15T06:39:17;100150.75;;;15.76
49154;BMP280;49455;52.252;9.124;2022-07-15T06:44:19;100146.41;;;15.75
49154;BMP280;49455;52.252;9.124;2022-07-15T06:49:28;100141.16;;;15.72
49154;BMP280;49455;52.252;9.124;2022-07-15T06:54:28;100146.56;;;15.87
49154;BMP280;49455;52.252;9.124;2022-07-15T06:59:29;100144.16;;;16.03
49154;BMP280;49455;52.252;9.124;2022-07-15T07:04:29;100147.09;;;16.22
49154;BMP280;49455;52.252;9.124;2022-07-15T07:09:30;100137.47;;;16.17
49154;BMP280;49455;52.252;9.124;2022-07-15T07:14:31;100142.31;;;15.93
49154;BMP280;49455;52.252;9.124;2022-07-15T07:19:32;100139.38;;;15.68
49154;BMP280;49455;52.252;9.124;2022-07-15T07:24:32;100138.03;;;15.38
49154;BMP280;49455;52.252;9.124;2022-07-15T07:29:33;100140.72;;;15.43
49154;BMP280;49455;52.252;9.124;2022-07-15T07:34:33;100140.41;;;15.80
49154;BMP280;49455;52.252;9.124;2022-07-15T07:39:34;100136.00;;;15.76
49154;BMP280;49455;52.252;9.124;2022-07-15T07:44:34;100135.72;;;16.17
49154;BMP280;49455;52.252;9.124;2022-07-15T07:49:35;100131.56;;;16.34
49154;BMP280;49455;52.252;9.124;2022-07-15T07:54:35;100142.31;;;16.64
49154;BMP280;49455;52.252;9.124;2022-07-15T07:59:35;100135.75;;;17.01
49154;BMP280;49455;52.252;9.124;2022-07-15T08:04:36;100129.66;;;17.05
49154;BMP280;49455;52.252;9.124;2022-07-15T08:09:36;100120.25;;;17.22
49154;BMP280;49455;52.252;9.124;2022-07-15T08:14:37;100125.47;;;17.19
49154;BMP280;49455;52.252;9.124;2022-07-15T08:19:37;100119.50;;;17.37
49154;BMP280;49455;52.252;9.124;2022-07-15T08:24:38;100121.13;;;17.22
49154;BMP280;49455;52.252;9.124;2022-07-15T08:29:38;100121.41;;;17.62
49154;BMP280;49455;52.252;9.124;2022-07-15T08:34:39;100115.44;;;17.84
49154;BMP280;49455;52.252;9.124;2022-07-15T08:39:39;100123.69;;;17.15
49154;BMP280;49455;52.252;9.124;2022-07-15T08:44:40;100123.69;;;17.12
49154;BMP280;49455;52.252;9.124;2022-07-15T08:49:41;100138.19;;;16.86
49154;BMP280;49455;52.252;9.124;2022-07-15T08:54:43;100144.47;;;17.06
49154;BMP280;49455;52.252;9.124;2022-07-15T08:59:44;100139.19;;;16.98
49154;BMP280;49455;52.252;9.124;2022-07-15T09:15:40;100148.72;;;16.94
49154;BMP280;49455;52.252;9.124;2022-07-15T09:20:42;100140.69;;;17.82
49154;BMP280;49455;52.252;9.124;2022-07-15T09:25:43;100145.34;;;18.36
49154;BMP280;49455;52.252;9.124;2022-07-15T09:30:45;100142.75;;;18.46
49154;BMP280;49455;52.252;9.124;2022-07-15T09:35:46;100145.94;;;17.80
49154;BMP280;49455;52.252;9.124;2022-07-15T09:40:49;100147.75;;;17.94
49154;BMP280;49455;52.252;9.124;2022-07-15T09:46:00;100140.78;;;17.98
49154;BMP280;49455;52.252;9.124;2022-07-15T09:51:00;100145.13;;;17.97
49154;BMP280;49455;52.252;9.124;2022-07-15T09:56:02;100152.25;;;18.16
49154;BMP280;49455;52.252;9.124;2022-07-15T10:01:05;100150.28;;;17.77
49154;BMP280;49455;52.252;9.124;2022-07-15T10:06:06;100146.19;;;18.27
49154;BMP280;49455;52.252;9.124;2022-07-15T10:11:09;100154.03;;;18.23
49154;BMP280;49455;52.252;9.124;2022-07-15T10:27:34;100156.91;;;19.01
49154;BMP280;49455;52.252;9.124;2022-07-15T10:48:47;100128.03;;;19.51
49154;BMP280;49455;52.252;9.124;2022-07-15T10:53:48;100118.44;;;19.50
49154;BMP280;49455;52.252;9.124;2022-07-15T11:09:11;100103.81;;;20.93
49154;BMP280;49455;52.252;9.124;2022-07-15T11:14:52;100106.56;;;20.81
49154;BMP280;49455;52.252;9.124;2022-07-15T11:19:56;100091.19;;;20.15
49154;BMP280;49455;52.252;9.124;2022-07-15T11:24:57;100093.88;;;19.94
49154;BMP280;49455;52.252;9.124;2022-07-15T11:30:00;100105.28;;;19.58
49154;BMP280;49455;52.252;9.124;2022-07-15T11:35:02;100096.59;;;19.41
49154;BMP280;49455;52.252;9.124;2022-07-15T11:45:09;100107.09;;;19.14
49154;BMP280;49455;52.252;9.124;2022-07-15T11:50:09;100106.22;;;18.95
49154;BMP280;49455;52.252;9.124;2022-07-15T11:55:10;100097.50;;;19.02
49154;BMP280;49455;52.252;9.124;2022-07-15T12:00:11;100090.50;;;19.21
49154;BMP280;49455;52.252;9.124;2022-07-15T12:05:14;100092.25;;;19.30
49154;BMP280;49455;52.252;9.124;2022-07-15T12:10:15;100088.75;;;19.37
49154;BMP280;49455;52.252;9.124;2022-07-15T12:15:15;100086.63;;;20.48
49154;BMP280;49455;52.252;9.124;2022-07-15T12:20:16;100075.22;;;21.57
49154;BMP280;49455;52.252;9.124;2022-07-15T12:25:20;100071.19;;;21.19
49154;BMP280;49455;52.252;9.124;2022-07-15T12:30:30;100065.81;;;21.37
49154;BMP280;49455;52.252;9.124;2022-07-15T12:35:31;100069.78;;;21.72
49154;BMP280;49455;52.252;9.124;2022-07-15T12:40:31;100073.34;;;20.73
49154;BMP280;49455;52.252;9.124;2022-07-15T12:45:36;100070.69;;;20.77
49154;BMP280;49455;52.252;9.124;2022-07-15T12:55:51;100072.94;;;19.72
49154;BMP280;49455;52.252;9.124;2022-07-15T13:00:52;100076.53;;;19.16
49154;BMP280;49455;52.252;9.124;2022-07-15T13:05:54;100083.50;;;18.83
49154;BMP280;49455;52.252;9.124;2022-07-15T13:10:59;100101.28;;;17.49
49154;BMP280;49455;52.252;9.124;2022-07-15T13:16:01;100115.84;;;17.13
49154;BMP280;49455;52.252;9.124;2022-07-15T13:21:05;100115.72;;;17.03
49154;BMP280;49455;52.252;9.124;2022-07-15T13:26:06;100115.00;;;17.16
49154;BMP280;49455;52.252;9.124;2022-07-15T13:31:07;100122.63;;;16.96
49154;BMP280;49455;52.252;9.124;2022-07-15T13:36:07;100124.75;;;17.37
49154;BMP280;49455;52.252;9.124;2022-07-15T13:41:08;100118.81;;;17.65
49154;BMP280;49455;52.252;9.124;2022-07-15T13:46:08;100132.50;;;17.26
49154;BMP280;49455;52.252;9.124;2022-07-15T13:51:09;100132.75;;;17.61
49154;BMP280;49455;52.252;9.124;2022-07-15T13:56:09;100137.63;;;17.17
49154;BMP280;49455;52.252;9.124;2022-07-15T14:01:10;100137.53;;;17.06
49154;BMP280;49455;52.252;9.124;2022-07-15T14:06:11;100130.94;;;17.54
49154;BMP280;49455;52.252;9.124;2022-07-15T14:11:11;100141.00;;;17.07
49154;BMP280;49455;52.252;9.124;2022-07-15T14:16:12;100120.63;;;17.79
49154;BMP280;49455;52.252;9.124;2022-07-15T14:21:13;100116.56;;;18.37
49154;BMP280;49455;52.252;9.124;2022-07-15T14:26:15;100116.66;;;19.79
49154;BMP280;49455;52.252;9.124;2022-07-15T14:31:15;100117.31;;;20.32
49154;BMP280;49455;52.252;9.124;2022-07-15T14:36:16;100101.03;;;21.15
49154;BMP280;49455;52.252;9.124;2022-07-15T14:41:16;100102.13;;;20.88
49154;BMP280;49455;52.252;9.124;2022-07-15T14:46:16;100089.28;;;21.54
49154;BMP280;49455;52.252;9.124;2022-07-15T14:51:17;100087.44;;;21.62
49154;BMP280;49455;52.252;9.124;2022-07-15T14:56:17;100088.75;;;22.02
49154;BMP280;49455;52.252;9.124;2022-07-15T15:01:18;100087.00;;;21.16
49154;BMP280;49455;52.252;9.124;2022-07-15T15:06:18;100075.16;;;22.37
49154;BMP280;49455;52.252;9.124;2022-07-15T15:11:19;100065.53;;;22.33
49154;BMP280;49455;52.252;9.124;2022-07-15T15:16:19;100070.63;;;21.78
49154;BMP280;49455;52.252;9.124;2022-07-15T15:21:20;100063.81;;;21.59
49154;BMP280;49455;52.252;9.124;2022-07-15T15:26:20;100060.84;;;20.98
49154;BMP280;49455;52.252;9.124;2022-07-15T15:31:21;100062.91;;;20.64
49154;BMP280;49455;52.252;9.124;2022-07-15T15:36:22;100053.34;;;20.48
49154;BMP280;49455;52.252;9.124;2022-07-15T15:41:22;100060.44;;;20.30
49154;BMP280;49455;52.252;9.124;2022-07-15T15:46:22;100063.00;;;20.39
49154;BMP280;49455;52.252;9.124;2022-07-15T15:51:23;100071.84;;;20.25
49154;BMP280;49455;52.252;9.124;2022-07-15T15:56:23;100079.06;;;19.58
49154;BMP280;49455;52.252;9.124;2022-07-15T16:01:24;100072.94;;;19.69
49154;BMP280;49455;52.252;9.124;2022-07-15T16:06:24;100061.66;;;19.30
49154;BMP280;49455;52.252;9.124;2022-07-15T16:11:25;100060.81;;;19.10
49154;BMP280;49455;52.252;9.124;2022-07-15T16:16:26;100052.97;;;19.05
49154;BMP280;49455;52.252;9.124;2022-07-15T16:21:26;100044.06;;;19.73
49154;BMP280;49455;52.252;9.124;2022-07-15T16:26:26;100060.72;;;19.58
49154;BMP280;49455;52.252;9.124;2022-07-15T16:31:27;100059.06;;;19.01
49154;BMP280;49455;52.252;9.124;2022-07-15T16:36:27;100077.38;;;18.86
49154;BMP280;49455;52.252;9.124;2022-07-15T16:41:28;100064.28;;;18.89
49154;BMP280;49455;52.252;9.124;2022-07-15T16:46:28;100050.31;;;19.33
49154;BMP280;49455;52.252;9.124;2022-07-15T16:51:29;100043.31;;;19.36
49154;BMP280;49455;52.252;9.124;2022-07-15T16:56:29;100037.97;;;19.70
49154;BMP280;49455;52.252;9.124;2022-07-15T17:01:30;100029.47;;;20.84
49154;BMP280;49455;52.252;9.124;2022-07-15T17:06:30;100022.41;;;20.92
49154;BMP280;49455;52.252;9.124;2022-07-15T17:11:31;100025.53;;;20.21
49154;BMP280;49455;52.252;9.124;2022-07-15T17:16:31;100017.47;;;20.44
49154;BMP280;49455;52.252;9.124;2022-07-15T17:21:32;100008.47;;;20.79
49154;BMP280;49455;52.252;9.124;2022-07-15T17:26:32;99999.63;;;20.93
49154;BMP280;49455;52.252;9.124;2022-07-15T17:31:33;100008.72;;;20.48
49154;BMP280;49455;52.252;9.124;2022-07-15T17:36:33;100010.84;;;19.84
49154;BMP280;49455;52.252;9.124;2022-07-15T17:41:34;100012.69;;;19.56
49154;BMP280;49455;52.252;9.124;2022-07-15T17:46:34;100006.38;;;19.98
49154;BMP280;49455;52.252;9.124;2022-07-15T17:51:35;100015.97;;;20.06
49154;BMP280;49455;52.252;9.124;2022-07-15T17:56:35;100017.69;;;20.12
49154;BMP280;49455;52.252;9.124;2022-07-15T18:01:36;100014.03;;;20.39
49154;BMP280;49455;52.252;9.124;2022-07-15T18:06:37;100010.94;;;19.52
49154;BMP280;49455;52.252;9.124;2022-07-15T18:11:37;100009.19;;;19.49
49154;BMP280;49455;52.252;9.124;2022-07-15T18:16:38;100000.44;;;19.64
49154;BMP280;49455;52.252;9.124;2022-07-15T18:21:39;100008.44;;;19.18
49154;BMP280;49455;52.252;9.124;2022-07-15T18:26:43;100007.59;;;18.94
49154;BMP280;49455;52.252;9.124;2022-07-15T18:31:43;99995.34;;;18.63
49154;BMP280;49455;52.252;9.124;2022-07-15T18:36:44;99991.84;;;18.61
49154;BMP280;49455;52.252;9.124;2022-07-15T18:41:45;99990.13;;;18.63
49154;BMP280;49455;52.252;9.124;2022-07-15T18:46:46;99993.59;;;18.59
49154;BMP280;49455;52.252;9.124;2022-07-15T18:51:46;99992.69;;;18.38
49154;BMP280;49455;52.252;9.124;2022-07-15T18:56:47;99992.69;;;18.20
49154;BMP280;49455;52.252;9.124;2022-07-15T19:01:48;99983.94;;;18.05
49154;BMP280;49455;52.252;9.124;2022-07-15T19:06:49;99976.03;;;17.90
49154;BMP280;49455;52.252;9.124;2022-07-15T19:11:49;99984.69;;;17.79
49154;BMP280;49455;52.252;9.124;2022-07-15T19:16:50;99987.28;;;17.70
49154;BMP280;49455;52.252;9.124;2022-07-15T19:21:50;99987.13;;;17.30
49154;BMP280;49455;52.252;9.124;2022-07-15T19:26:51;99992.16;;;17.04
49154;BMP280;49455;52.252;9.124;2022-07-15T19:31:51;99980.72;;;16.89
49154;BMP280;49455;52.252;9.124;2022-07-15T19:36:52;99975.41;;;16.78
49154;BMP280;49455;52.252;9.124;2022-07-15T19:41:52;99981.50;;;16.76
49154;BMP280;49455;52.252;9.124;2022-07-15T19:46:53;99983.09;;;16.59
49154;BMP280;49455;52.252;9.124;2022-07-15T19:51:53;99982.19;;;16.50
49154;BMP280;49455;52.252;9.124;2022-07-15T19:56:54;99980.09;;;16.16
49154;BMP280;49455;52.252;9.124;2022-07-15T20:01:54;99980.06;;;16.12
49154;BMP280;49455;52.252;9.124;2022-07-15T20:06:55;99981.94;;;16.23
49154;BMP280;49455;52.252;9.124;2022-07-15T20:11:55;99981.91;;;16.20
49154;BMP280;49455;52.252;9.124;2022-07-15T20:16:56;99985.31;;;16.16
49154;BMP280;49455;52.252;9.124;2022-07-15T20:21:58;99976.50;;;16.04
49154;BMP280;49455;52.252;9.124;2022-07-15T20:26:58;99971.25;;;16.01
49154;BMP280;49455;52.252;9.124;2022-07-15T20:31:59;99980.72;;;15.93
49154;BMP280;49455;52.252;9.124;2022-07-15T20:37:00;99981.66;;;16.00
49154;BMP280;49455;52.252;9.124;2022-07-15T20:42:01;99974.50;;;15.81
49154;BMP280;49455;52.252;9.124;2022-07-15T20:47:02;99954.53;;;15.83
49154;BMP280;49455;52.252;9.124;2022-07-15T20:52:03;99958.84;;;15.81
49154;BMP280;49455;52.252;9.124;2022-07-15T20:57:03;99962.38;;;15.86
49154;BMP280;49455;52.252;9.124;2022-07-15T21:02:04;99959.72;;;15.81
49154;BMP280;49455;52.252;9.124;2022-07-15T21:07:04;99962.38;;;15.86
49154;BMP280;49455;52.252;9.124;2022-07-15T21:12:05;99955.44;;;15.85
49154;BMP280;49455;52.252;9.124;2022-07-15T21:17:05;99943.41;;;16.00
49154;BMP280;49455;52.252;9.124;2022-07-15T21:22:06;99939.94;;;16.00
49154;BMP280;49455;52.252;9.124;2022-07-15T21:27:06;99941.72;;;16.03
49154;BMP280;49455;52.252;9.124;2022-07-15T21:32:07;99938.34;;;16.12
49154;BMP280;49455;52.252;9.124;2022-07-15T21:37:08;99929.69;;;16.13
49154;BMP280;49455;52.252;9.124;2022-07-15T21:42:08;99939.34;;;16.23
49154;BMP280;49455;52.252;9.124;2022-07-15T21:47:09;99928.84;;;16.15
49154;BMP280;49455;52.252;9.124;2022-07-15T21:52:09;99929.66;;;16.11
49154;BMP280;49455;52.252;9.124;2022-07-15T21:57:10;99931.47;;;16.18
49154;BMP280;49455;52.252;9.124;2022-07-15T22:02:10;99926.31;;;16.23
49154;BMP280;49455;52.252;9.124;2022-07-15T22:07:11;99924.56;;;16.25
49154;BMP280;49455;52.252;9.124;2022-07-15T22:12:11;99929.66;;;16.11
49154;BMP280;49455;52.252;9.124;2022-07-15T22:17:12;99921.91;;;16.22
49154;BMP280;49455;52.252;9.124;2022-07-15T22:22:12;99924.50;;;16.17
49154;BMP280;49455;52.252;9.124;2022-07-15T22:27:13;99912.31;;;16.16
49154;BMP280;49455;52.252;9.124;2022-07-15T22:32:13;99922.66;;;16.09
49154;BMP280;49455;52.252;9.124;2022-07-15T22:37:15;99919.31;;;16.17
49154;BMP280;49455;52.252;9.124;2022-07-15T22:42:15;99915.84;;;16.20
49154;BMP280;49455;52.252;9.124;2022-07-15T22:47:16;99908.88;;;16.17
49154;BMP280;49455;52.252;9.124;2022-07-15T22:52:16;99913.19;;;16.15
49154;BMP280;49455;52.252;9.124;2022-07-15T22:57:16;99919.16;;;16.07
49154;BMP280;49455;52.252;9.124;2022-07-15T23:02:17;99911.34;;;16.07
49154;BMP280;49455;52.252;9.124;2022-07-15T23:07:18;99902.72;;;16.14
49154;BMP280;49455;52.252;9.124;2022-07-15T23:12:19;99891.53;;;16.22
49154;BMP280;49455;52.252;9.124;2022-07-15T23:17:20;99888.06;;;16.26
49154;BMP280;49455;52.252;9.124;2022-07-15T23:22:20;99891.63;;;16.34
49154;BMP280;49455;52.252;9.124;2022-07-15T23:27:21;99894.19;;;16.30
49154;BMP280;49455;52.252;9.124;2022-07-15T23:32:21;99887.19;;;16.23
49154;BMP280;49455;52.252;9.124;2022-07-15T23:37:22;99889.78;;;16.24
49154;BMP280;49455;52.252;9.124;2022-07-15T23:42:22;99879.34;;;16.21
49154;BMP280;49455;52.252;9.124;2022-07-15T23:47:24;99878.50;;;16.27
49154;BMP280;49455;52.252;9.124;2022-07-15T23:52:24;99887.22;;;16.26
49154;BMP280;49455;52.252;9.124;2022-07-15T23:57:25;99891.56;;;16.25
